Bookmark and Share
Track history (hours):
 

Drifting buoy 46612

Last reported at 2014-Apr-18 05:00 UTC. Time now 2014-Apr-18 08:18 UTC.
Position N 27°22' W 136°45'.

Water temperature 19.5 ° C

NotesDate/timePositionNaut miles runAvg speedWind from/ knotsBaromVisibWave heightAir tempDewpointWater temp
2014-Apr-18 05:00N 27°22' W 136°45'0 0.0 19.5
2014-Apr-18 04:00N 27°22' W 136°45'0 0.4 19.5
2014-Apr-18 03:00N 27°22' W 136°45'0 0.2 19.5
2014-Apr-18 02:00N 27°21' W 136°45'1 0.6 19.5
2014-Apr-18 01:00N 27°22' W 136°45'0 0.1 19.5
2014-Apr-18 00:00N 27°22' W 136°45'1 0.3 19.5
2014-Apr-17 22:00N 27°22' W 136°44'0 0.5 19.5
2014-Apr-17 21:00N 27°23' W 136°44'0 0.5 19.4
2014-Apr-17 20:00N 27°23' W 136°44'1 0.5 19.4
2014-Apr-17 19:00N 27°23' W 136°44'0 0.3 19.4
2014-Apr-17 18:00N 27°23' W 136°44'0 0.4 19.4
2014-Apr-17 17:00N 27°24' W 136°44'1 0.8 19.4
2014-Apr-17 16:00N 27°24' W 136°43'1 0.4 19.4
2014-Apr-17 14:00N 27°25' W 136°43'0 0.5 19.4
2014-Apr-17 13:00N 27°25' W 136°43'1 0.5 19.4
2014-Apr-17 12:00N 27°26' W 136°43'0 0.0 19.4
2014-Apr-17 11:00N 27°26' W 136°43'1 0.3 19.3
2014-Apr-17 09:00N 27°27' W 136°43'0 0.2 19.3
2014-Apr-17 07:00N 27°27' W 136°43'0 0.2 19.3
2014-Apr-17 06:00N 27°27' W 136°43'0 0.3 19.3
2014-Apr-17 05:00N 27°27' W 136°43'0 0.0 19.4
2014-Apr-17 04:00N 27°27' W 136°43'0 0.2 19.4
2014-Apr-17 03:00N 27°27' W 136°43'0 0.4 19.4
2014-Apr-17 02:00N 27°27' W 136°42'0 0.4 19.5
2014-Apr-17 01:00N 27°27' W 136°42'1 0.7 19.5
2014-Apr-17 00:00N 27°28' W 136°42'0 0.1 19.5
2014-Apr-16 21:00N 27°28' W 136°42'1 0.9 19.5
2014-Apr-16 20:00N 27°28' W 136°41'1 0.5 19.4
2014-Apr-16 19:00N 27°29' W 136°41'0 0.2 19.4
2014-Apr-16 18:00N 27°29' W 136°41'1 0.4 19.3
2014-Apr-16 16:00N 27°30' W 136°41'1 0.6 19.3
2014-Apr-16 15:00N 27°30' W 136°40'1 0.3 19.3
2014-Apr-16 13:00N 27°31' W 136°40'0 0.2 19.4
2014-Apr-16 11:00N 27°31' W 136°40'1 0.5 19.4
2014-Apr-16 10:00N 27°31' W 136°40'0 0.0 19.4
2014-Apr-16 09:00N 27°31' W 136°40'0 0.1 19.4
2014-Apr-16 06:00N 27°31' W 136°40'2 0.9 19.4
2014-Apr-16 04:00N 27°32' W 136°38'0 0.4 19.4
2014-Apr-16 03:00N 27°31' W 136°38'1 0.7 19.5
2014-Apr-16 02:00N 27°32' W 136°38'0 0.2 19.5
2014-Apr-16 00:00N 27°32' W 136°37'1 0.6 19.5
2014-Apr-15 23:00N 27°32' W 136°37'1 0.4 19.5
2014-Apr-15 21:00N 27°33' W 136°36'1 0.4 19.5
2014-Apr-15 19:00N 27°33' W 136°35'1 0.4 19.5
2014-Apr-15 17:00N 27°34' W 136°35'0 0.0 19.5
2014-Apr-15 16:00N 27°34' W 136°35'0 0.3 19.5
2014-Apr-15 15:00N 27°34' W 136°35'1 0.8 19.5
2014-Apr-15 14:00N 27°34' W 136°34'0 0.5 19.5
2014-Apr-15 13:00N 27°34' W 136°35'3 0.5 19.5
2014-Apr-15 07:00N 27°36' W 136°32'1 0.6 19.6
2014-Apr-15 06:00N 27°35' W 136°32'1 0.6 19.6
2014-Apr-15 05:00N 27°35' W 136°32'1 0.5 19.7
2014-Apr-15 03:00N 27°35' W 136°31'1 0.9 19.7
2014-Apr-15 02:00N 27°36' W 136°30'1 1.0 19.7
2014-Apr-15 01:00N 27°36' W 136°29'0 0.1 19.8
2014-Apr-14 23:00N 27°36' W 136°29'0 0.1 19.8
2014-Apr-14 21:00N 27°36' W 136°29'1 1.2 19.7
2014-Apr-14 20:00N 27°36' W 136°28'0 0.4 19.7
2014-Apr-14 19:00N 27°37' W 136°28'0 0.0 19.7
2014-Apr-14 18:00N 27°37' W 136°28'1 1.3 19.6
2014-Apr-14 17:00N 27°36' W 136°26'0 0.2 19.6
2014-Apr-14 15:00N 27°36' W 136°26'1 0.6 19.6
2014-Apr-14 14:00N 27°37' W 136°26'1 0.5 19.6
2014-Apr-14 11:00N 27°38' W 136°24'2 0.4 19.6
2014-Apr-14 05:00N 27°38' W 136°22'1 0.7 19.6
2014-Apr-14 04:00N 27°39' W 136°21'1 0.3 19.6
2014-Apr-14 02:00N 27°39' W 136°21'1 0.6 19.6
2014-Apr-14 00:00N 27°40' W 136°20'0 0.4 19.6
2014-Apr-13 23:00N 27°40' W 136°20'2 0.6 19.6
2014-Apr-13 20:00N 27°40' W 136°18'4 0.6 19.5
2014-Apr-13 13:00N 27°42' W 136°13'0 0.0 19.4
2014-Apr-13 12:00N 27°42' W 136°13'0 0.0 19.4
2014-Apr-13 09:00N 27°42' W 136°13'2 0.8 19.4
2014-Apr-13 07:00N 27°43' W 136°12'1 0.7 19.4
2014-Apr-13 06:00N 27°43' W 136°11'1 0.9 19.4
2014-Apr-13 05:00N 27°44' W 136°10'0 0.1 19.4
2014-Apr-13 03:00N 27°44' W 136°11'1 0.3 19.4
2014-Apr-13 00:00N 27°44' W 136°10'0 0.3 19.5
2014-Apr-12 23:00N 27°44' W 136°10'0 0.2 19.5
2014-Apr-12 21:00N 27°45' W 136°10'0 0.1 19.4
2014-Apr-12 19:00N 27°45' W 136°10'3 1.4 19.4
2014-Apr-12 17:00N 27°44' W 136°07'0 0.2 19.4
2014-Apr-12 15:00N 27°44' W 136°07'0 0.0 19.4
2014-Apr-12 14:00N 27°44' W 136°07'0 0.4 19.4
2014-Apr-12 13:00N 27°45' W 136°07'0 0.2 19.4
2014-Apr-12 12:00N 27°45' W 136°07'2 0.4 19.4
2014-Apr-12 07:00N 27°46' W 136°05'0 0.3 19.4
2014-Apr-12 06:00N 27°46' W 136°05'1 0.3 19.5
2014-Apr-12 04:00N 27°47' W 136°05'0 0.1 19.5
2014-Apr-12 01:00N 27°47' W 136°05'0 0.2 19.6
2014-Apr-11 23:00N 27°47' W 136°05'1 0.2 19.6
2014-Apr-11 19:00N 27°48' W 136°04'0 0.3 19.5
2014-Apr-11 18:00N 27°48' W 136°04'1 0.1 19.4
2014-Apr-11 12:00N 27°48' W 136°03'0 0.3 19.4
2014-Apr-11 11:00N 27°48' W 136°03'2 0.5 19.4
2014-Apr-11 07:00N 27°50' W 136°02'0 0.3 19.5
2014-Apr-11 06:00N 27°50' W 136°02'0 0.2 19.5
2014-Apr-11 05:00N 27°50' W 136°02'1 1.3 19.5
2014-Apr-11 04:00N 27°51' W 136°00'1 0.6 19.5
2014-Apr-11 02:00N 27°52' W 136°01'1 0.6 19.5
2014-Apr-11 01:00N 27°53' W 136°01'3 0.4 19.6
2014-Apr-10 19:00N 27°55' W 136°02'1 0.6 19.4
2014-Apr-10 18:00N 27°55' W 136°01'1 0.2 19.3
2014-Apr-10 12:00N 27°56' W 135°60'3 0.5 19.3
2014-Apr-10 06:00N 27°58' W 135°58'1 0.4 19.3
2014-Apr-10 03:00N 27°59' W 135°58'1 0.8 19.4
2014-Apr-10 02:00N 27°60' W 135°57'0 0.2 19.5
2014-Apr-10 01:00N 27°60' W 135°57'0 0.0 19.6
2014-Apr-10 00:00N 27°60' W 135°57'1 1.1 19.6
2014-Apr-09 23:00N 27°59' W 135°58'0 0.0 19.5
2014-Apr-09 22:00N 27°59' W 135°58'1 0.7 19.5
2014-Apr-09 20:00N 28°00' W 135°57'0 0.1 19.3
2014-Apr-09 19:00N 28°00' W 135°58'1 0.9 19.3
2014-Apr-09 18:00N 28°00' W 135°57'0 0.0 19.3
2014-Apr-09 17:00N 28°00' W 135°57'1 0.3 19.3
2014-Apr-09 14:00N 28°01' W 135°56'0 0.0 19.3
2014-Apr-09 13:00N 28°01' W 135°56'0 0.4 19.3
2014-Apr-09 12:00N 28°00' W 135°55'0 0.0 19.3
2014-Apr-09 11:00N 28°00' W 135°55'0 0.1 19.3
2014-Apr-09 09:00N 28°00' W 135°55'1 0.4 19.3
2014-Apr-09 06:00N 28°01' W 135°54'0 0.0 19.3
2014-Apr-09 05:00N 28°01' W 135°54'1 1.0 19.4
2014-Apr-09 04:00N 28°00' W 135°53'0 0.0 19.4
2014-Apr-09 03:00N 28°00' W 135°53'1 0.5 19.5
2014-Apr-09 01:00N 28°00' W 135°52'1 1.2 19.6
2014-Apr-09 00:00N 28°00' W 135°50'1 0.3 19.7
2014-Apr-08 20:00N 28°01' W 135°49'0 0.0 19.4
2014-Apr-08 19:00N 28°01' W 135°49'1 0.6 19.4
2014-Apr-08 18:00N 28°01' W 135°49'0 0.1 19.3
2014-Apr-08 17:00N 28°01' W 135°48'1 0.5 19.3
2014-Apr-08 15:00N 28°01' W 135°47'1 0.7 19.3
2014-Apr-08 14:00N 28°01' W 135°46'0 0.3 19.3
2014-Apr-08 13:00N 28°01' W 135°46'1 0.8 19.3
2014-Apr-08 12:00N 28°01' W 135°45'0 0.0 19.3
2014-Apr-08 11:00N 28°01' W 135°45'0 0.2 19.3
2014-Apr-08 09:00N 28°01' W 135°45'1 0.5 19.4
2014-Apr-08 07:00N 28°01' W 135°44'0 0.3 19.5
2014-Apr-08 06:00N 28°01' W 135°44'0 0.4 19.6
2014-Apr-08 05:00N 28°01' W 135°43'   19.7

Dump ship's entire track history

sailing weather and tide predictions

Buoy 46612